createdAt,value
2023-05-15T00:00:06.589Z,101677.81
2023-05-15T00:02:36.887Z,101682.34
2023-05-15T00:05:08.707Z,101686.59
2023-05-15T00:07:37.547Z,101590.09
2023-05-15T00:10:07.779Z,101531.09
2023-05-15T00:12:35.654Z,101666.66
2023-05-15T00:15:03.688Z,101542.25
2023-05-15T00:17:31.546Z,101683.38
2023-05-15T00:20:00.540Z,101678.91
2023-05-15T00:22:28.526Z,101663.47
2023-05-15T00:24:56.335Z,101669.69
2023-05-15T00:27:26.620Z,101674.91
2023-05-15T00:29:54.548Z,101658.59
2023-05-15T00:32:22.452Z,101656.97
2023-05-15T00:34:50.417Z,101664.63
2023-05-15T00:37:18.588Z,101647.56
2023-05-15T00:39:46.432Z,101642.84
2023-05-15T00:42:16.303Z,101656.03
2023-05-15T00:44:46.658Z,101647.97
2023-05-15T00:47:17.079Z,101651.25
2023-05-15T00:49:46.163Z,101653.75
2023-05-15T00:52:15.317Z,101631.53
2023-05-15T00:54:43.191Z,101590.44
2023-05-15T00:57:12.605Z,101638.66
2023-05-15T00:59:41.131Z,101626.16
2023-05-15T01:02:10.579Z,101638.59
2023-05-15T01:04:38.584Z,101644.59
2023-05-15T01:07:06.403Z,101634.72
2023-05-15T01:09:35.553Z,101637.22
2023-05-15T01:12:04.038Z,101631.75
2023-05-15T01:14:31.890Z,101641.19
2023-05-15T01:16:59.765Z,101642.84
2023-05-15T01:19:29.250Z,101641.75
2023-05-15T01:22:24.561Z,101643.28
2023-05-15T01:25:13.080Z,101639.63
2023-05-15T01:27:49.877Z,101637.69
2023-05-15T01:30:23.372Z,101627.75
2023-05-15T01:33:01.239Z,101629.41
2023-05-15T01:35:35.340Z,101588.53
2023-05-15T01:38:13.827Z,101603.69
2023-05-15T01:40:43.072Z,101620.47
2023-05-15T01:43:19.540Z,101620.25
2023-05-15T01:45:47.619Z,101619.94
2023-05-15T01:48:16.538Z,101614.44
2023-05-15T01:50:46.744Z,101614.16
2023-05-15T01:53:16.305Z,101610.66
2023-05-15T01:55:45.060Z,101606.13
2023-05-15T01:58:15.368Z,101601.66
2023-05-15T02:00:44.019Z,101602.41
2023-05-15T02:03:12.529Z,101589.81
2023-05-15T02:05:41.430Z,101575.53
2023-05-15T02:08:10.648Z,101599.72
2023-05-15T02:10:38.561Z,101598.75
2023-05-15T02:13:07.357Z,101578.31
2023-05-15T02:15:38.010Z,101580.91
2023-05-15T02:18:06.730Z,101597.03
2023-05-15T02:20:34.671Z,101589.78
2023-05-15T02:23:02.528Z,101596.78
2023-05-15T02:25:39.817Z,101600.19
2023-05-15T02:28:18.388Z,101602.69
2023-05-15T02:30:56.193Z,101599.97
2023-05-15T02:33:31.339Z,101589.41
2023-05-15T02:36:03.120Z,101584.84
2023-05-15T02:38:36.757Z,101578.59
2023-05-15T02:41:07.260Z,101583.56
2023-05-15T02:43:37.369Z,101584.47
2023-05-15T02:46:11.623Z,101588.88
2023-05-15T02:48:42.659Z,101582.94
2023-05-15T02:51:12.283Z,101577.75
2023-05-15T02:53:41.472Z,101581.31
2023-05-15T02:56:12.155Z,101575.28
2023-05-15T02:58:41.098Z,101571.84
2023-05-15T03:01:10.382Z,101571.91
2023-05-15T03:03:38.568Z,101557.09
2023-05-15T03:06:06.732Z,101558.09
2023-05-15T03:08:34.980Z,101565.13
2023-05-15T03:11:02.836Z,101553.56
2023-05-15T03:13:30.846Z,101554.34
2023-05-15T03:15:58.680Z,101554.22
2023-05-15T03:18:28.200Z,101545.50
2023-05-15T03:20:58.487Z,101543.84
2023-05-15T03:23:26.524Z,101543.94
2023-05-15T03:25:55.544Z,101395.00
2023-05-15T03:28:23.453Z,101547.72
2023-05-15T03:30:51.287Z,101543.41
2023-05-15T03:33:20.652Z,101541.72
2023-05-15T03:35:52.052Z,101554.09
2023-05-15T03:38:20.751Z,101554.97
2023-05-15T03:40:51.090Z,101562.06
2023-05-15T03:43:19.395Z,101555.97
2023-05-15T03:45:47.269Z,101549.88
2023-05-15T03:48:15.277Z,101549.19
2023-05-15T03:50:45.147Z,101537.84
2023-05-15T03:53:14.361Z,101513.78
2023-05-15T03:55:42.345Z,101544.44
2023-05-15T03:58:10.253Z,101539.28
2023-05-15T04:00:38.272Z,101527.97
2023-05-15T04:03:06.407Z,101529.91
2023-05-15T04:05:34.354Z,101526.56
2023-05-15T04:08:02.266Z,101516.00
2023-05-15T04:10:32.465Z,101524.19
2023-05-15T04:13:01.659Z,101520.78
2023-05-15T04:15:29.866Z,101526.06
2023-05-15T04:18:00.213Z,101519.09
2023-05-15T04:20:30.743Z,101520.03
2023-05-15T04:22:58.654Z,101521.94
2023-05-15T04:25:27.338Z,101517.50
2023-05-15T04:27:56.759Z,101528.97
2023-05-15T04:30:24.780Z,101526.34
2023-05-15T04:32:53.045Z,101527.38
2023-05-15T04:35:20.908Z,101520.47
2023-05-15T04:37:48.891Z,101519.81
2023-05-15T04:40:17.086Z,101522.56
2023-05-15T04:42:45.043Z,101514.78
2023-05-15T04:45:14.845Z,101509.59
2023-05-15T04:47:42.873Z,101494.47
2023-05-15T04:50:11.359Z,101516.91
2023-05-15T04:52:39.210Z,101482.34
2023-05-15T04:55:08.254Z,101505.69
2023-05-15T04:57:36.120Z,101515.22
2023-05-15T05:00:05.914Z,101518.84
2023-05-15T05:02:35.236Z,101515.28
2023-05-15T05:05:03.149Z,101499.16
2023-05-15T05:07:31.008Z,101509.97
2023-05-15T05:09:58.979Z,101503.00
2023-05-15T05:12:28.030Z,101506.53
2023-05-15T05:14:56.807Z,101498.53
2023-05-15T05:17:24.971Z,101506.63
2023-05-15T05:19:54.457Z,101506.63
2023-05-15T05:22:22.307Z,101507.56
2023-05-15T05:24:50.269Z,101503.25
2023-05-15T05:27:18.105Z,101507.00
2023-05-15T05:29:47.430Z,101490.44
2023-05-15T05:32:15.448Z,101494.28
2023-05-15T05:34:43.325Z,101482.88
2023-05-15T05:37:12.527Z,101501.72
2023-05-15T05:39:40.446Z,101498.50
2023-05-15T05:42:08.369Z,101494.41
2023-05-15T05:44:36.320Z,101494.59
2023-05-15T05:47:04.762Z,101498.47
2023-05-15T05:49:32.684Z,101498.72
2023-05-15T05:52:06.686Z,101482.28
2023-05-15T05:54:36.119Z,101477.91
2023-05-15T05:57:04.066Z,101495.06
2023-05-15T05:59:32.129Z,101497.19
2023-05-15T06:02:00.279Z,101489.56
2023-05-15T06:04:28.370Z,101485.47
2023-05-15T06:06:57.746Z,101479.69
2023-05-15T06:09:25.636Z,101482.66
2023-05-15T06:11:54.848Z,101483.91
2023-05-15T06:14:23.353Z,101476.25
2023-05-15T06:16:51.551Z,101477.56
2023-05-15T06:19:19.461Z,101477.88
2023-05-15T06:21:47.537Z,101469.38
2023-05-15T06:24:15.586Z,101450.06
2023-05-15T06:26:43.598Z,101474.38
2023-05-15T06:29:16.052Z,101471.94
2023-05-15T06:31:43.901Z,101473.88
2023-05-15T06:34:11.822Z,101470.53
2023-05-15T06:36:39.715Z,101467.16
2023-05-15T06:39:10.709Z,101465.47
2023-05-15T06:41:39.003Z,101459.31
2023-05-15T06:44:06.858Z,101452.25
2023-05-15T06:46:36.154Z,101461.22
2023-05-15T06:49:04.296Z,101462.16
2023-05-15T06:51:32.251Z,101454.16
2023-05-15T06:54:00.154Z,101436.59
2023-05-15T06:56:28.054Z,101449.13
2023-05-15T06:58:56.833Z,101437.63
2023-05-15T07:01:24.833Z,101398.59
2023-05-15T07:03:54.310Z,101447.50
2023-05-15T07:06:22.228Z,101426.19
2023-05-15T07:08:50.111Z,101445.78
2023-05-15T07:11:18.410Z,101443.22
2023-05-15T07:13:46.685Z,101441.53
2023-05-15T07:16:14.768Z,101446.81
2023-05-15T07:18:45.398Z,101432.59
2023-05-15T07:21:14.876Z,101436.22
2023-05-15T07:23:42.756Z,101437.09
2023-05-15T07:26:16.910Z,101439.88
2023-05-15T07:28:48.066Z,101447.97
2023-05-15T07:31:16.014Z,101445.44
2023-05-15T07:33:43.886Z,101443.88
2023-05-15T07:36:13.141Z,101426.28
2023-05-15T07:38:42.447Z,101426.38
2023-05-15T07:41:10.635Z,101334.97
2023-05-15T07:43:40.536Z,101417.03
2023-05-15T07:46:08.538Z,101432.47
2023-05-15T07:48:36.476Z,101427.38
2023-05-15T07:51:04.352Z,101427.50
2023-05-15T07:53:33.334Z,101419.66
2023-05-15T07:56:02.645Z,101413.91
2023-05-15T07:58:30.490Z,101417.91
2023-05-15T08:00:58.500Z,101418.44
2023-05-15T08:03:26.727Z,101423.22
2023-05-15T08:05:54.654Z,101385.59
2023-05-15T08:08:23.224Z,101412.78
2023-05-15T08:10:51.048Z,101415.72
2023-05-15T08:13:20.256Z,101397.53
2023-05-15T08:15:48.292Z,101397.34
2023-05-15T08:18:16.184Z,101406.59
2023-05-15T08:20:44.256Z,101387.34
2023-05-15T08:23:15.270Z,101388.63
2023-05-15T08:25:43.164Z,101384.84
2023-05-15T08:28:12.246Z,101373.91
2023-05-15T08:30:42.309Z,101377.72
2023-05-15T08:33:10.256Z,101387.22
2023-05-15T08:35:38.108Z,101383.06
2023-05-15T08:38:06.223Z,101379.81
2023-05-15T08:40:38.961Z,101377.84
2023-05-15T08:43:15.144Z,101340.31
2023-05-15T08:45:44.798Z,101376.16
2023-05-15T08:48:15.569Z,101383.13
2023-05-15T08:50:44.808Z,101373.06
2023-05-15T08:53:13.908Z,101381.03
2023-05-15T08:55:42.688Z,101380.38
2023-05-15T08:58:11.097Z,101346.72
2023-05-15T09:00:39.460Z,101365.28
2023-05-15T09:03:15.443Z,101372.41
2023-05-15T09:05:43.998Z,101367.31
2023-05-15T09:08:12.122Z,101376.38
2023-05-15T09:10:40.127Z,101375.94
2023-05-15T09:13:09.013Z,101377.75
2023-05-15T09:15:37.622Z,101365.06
2023-05-15T09:18:07.968Z,101361.25
2023-05-15T09:20:41.062Z,101355.88
2023-05-15T09:23:24.753Z,101355.88
2023-05-15T09:25:55.675Z,101345.81
2023-05-15T09:28:29.304Z,101328.72
2023-05-15T09:31:01.692Z,101220.09
2023-05-15T09:33:31.454Z,101345.78
2023-05-15T09:36:00.987Z,101337.44
2023-05-15T09:38:29.313Z,101337.81
2023-05-15T09:41:03.707Z,101336.00
2023-05-15T09:43:35.053Z,101330.94
2023-05-15T09:46:02.967Z,101325.72
2023-05-15T09:48:32.487Z,101325.78
2023-05-15T09:51:05.900Z,101331.69
2023-05-15T09:53:35.866Z,101332.16
2023-05-15T09:56:06.576Z,101327.56
2023-05-15T09:58:36.466Z,101337.06
2023-05-15T10:01:11.663Z,101340.81
2023-05-15T10:03:44.028Z,101328.28
2023-05-15T10:06:19.768Z,101329.97
2023-05-15T10:08:52.642Z,101326.63
2023-05-15T10:11:21.031Z,101287.78
2023-05-15T10:13:49.227Z,101332.22
2023-05-15T10:16:22.062Z,101320.91
2023-05-15T10:18:52.489Z,101325.16
2023-05-15T10:21:23.574Z,101336.19
2023-05-15T10:23:52.123Z,101322.41
2023-05-15T10:26:24.940Z,101329.03
2023-05-15T10:28:54.136Z,101310.25
2023-05-15T10:31:23.252Z,101325.03
2023-05-15T10:33:53.895Z,101335.22
2023-05-15T10:36:24.668Z,101340.88
2023-05-15T10:38:53.217Z,101327.97
2023-05-15T10:41:22.643Z,101331.56
2023-05-15T10:43:54.638Z,101210.03
2023-05-15T10:46:22.997Z,101338.69
2023-05-15T10:48:51.801Z,101331.63
2023-05-15T10:51:25.803Z,101330.31
2023-05-15T10:53:55.252Z,101271.38
2023-05-15T10:56:28.135Z,101327.44
2023-05-15T10:58:56.737Z,101328.41
2023-05-15T11:01:29.751Z,101330.19
2023-05-15T11:04:08.830Z,101333.97
2023-05-15T11:06:37.568Z,101336.78
2023-05-15T11:09:40.829Z,101335.28
2023-05-15T11:12:12.941Z,101330.94
2023-05-15T11:14:43.223Z,101332.84
2023-05-15T11:17:12.384Z,101330.22
2023-05-15T11:19:59.039Z,101323.09
2023-05-15T11:22:32.994Z,101326.72
2023-05-15T11:25:03.554Z,101325.91
2023-05-15T11:27:32.816Z,101321.50
2023-05-15T11:30:15.104Z,101317.16
2023-05-15T11:32:50.187Z,101329.66
2023-05-15T11:35:24.367Z,101313.72
2023-05-15T11:37:54.242Z,101330.63
2023-05-15T11:40:25.921Z,101318.16
2023-05-15T11:43:05.714Z,101322.53
2023-05-15T11:45:35.991Z,101310.03
2023-05-15T11:48:06.347Z,101316.28
2023-05-15T11:50:36.179Z,101312.72
2023-05-15T11:53:06.444Z,101298.44
2023-05-15T11:55:37.187Z,101291.22
2023-05-15T11:58:11.505Z,101280.50
2023-05-15T12:00:41.281Z,101284.75
2023-05-15T12:03:16.597Z,101281.13
2023-05-15T12:05:57.364Z,101263.31
2023-05-15T12:08:31.813Z,101274.63
2023-05-15T12:11:01.759Z,101282.38
2023-05-15T12:13:30.524Z,101267.69
2023-05-15T12:15:58.646Z,101252.16
2023-05-15T12:18:26.789Z,101208.63
2023-05-15T12:20:56.148Z,101264.28
2023-05-15T12:23:25.619Z,101263.75
2023-05-15T12:25:58.415Z,101263.91
2023-05-15T12:28:29.785Z,101252.53
2023-05-15T12:30:58.524Z,101264.31
2023-05-15T12:33:26.614Z,101255.44
2023-05-15T12:36:00.873Z,101263.19
2023-05-15T12:38:30.545Z,101253.91
2023-05-15T12:40:59.252Z,101258.97
2023-05-15T12:43:28.587Z,101255.34
2023-05-15T12:45:57.353Z,101253.56
2023-05-15T12:48:30.804Z,101241.31
2023-05-15T12:51:06.039Z,101260.28
2023-05-15T12:53:35.379Z,101245.91
2023-05-15T12:56:04.794Z,101240.13
2023-05-15T12:58:35.004Z,101230.41
2023-05-15T13:01:04.547Z,101239.06
2023-05-15T13:03:33.338Z,101236.47
2023-05-15T13:06:03.225Z,101227.13
2023-05-15T13:08:31.572Z,101198.56
2023-05-15T13:11:00.906Z,101227.91
2023-05-15T13:13:48.769Z,101210.41
2023-05-15T13:16:26.379Z,101222.88
2023-05-15T13:18:54.845Z,101228.41
2023-05-15T13:21:22.839Z,101215.31
2023-05-15T13:23:53.049Z,101226.28
2023-05-15T13:26:20.952Z,101217.66
2023-05-15T13:28:50.345Z,101211.34
2023-05-15T13:31:18.331Z,101204.66
2023-05-15T13:33:46.318Z,101012.06
2023-05-15T13:36:14.272Z,101207.91
2023-05-15T13:38:42.226Z,101181.22
2023-05-15T13:41:10.460Z,101194.94
2023-05-15T13:43:38.368Z,101184.09
2023-05-15T13:46:09.967Z,101197.78
2023-05-15T13:48:37.852Z,101195.22
2023-05-15T13:51:06.390Z,101189.47
2023-05-15T13:53:34.289Z,101193.19
2023-05-15T13:56:02.392Z,101184.69
2023-05-15T13:58:30.581Z,101182.63
2023-05-15T14:00:58.487Z,101173.56
2023-05-15T14:03:27.895Z,101182.16
2023-05-15T14:05:55.952Z,101174.72
2023-05-15T14:08:23.773Z,101168.41
2023-05-15T14:10:51.641Z,101157.97
2023-05-15T14:13:19.942Z,101149.00
2023-05-15T14:15:47.788Z,101154.13
2023-05-15T14:18:15.724Z,101159.41
2023-05-15T14:20:45.117Z,101147.78
2023-05-15T14:23:13.010Z,101138.28
2023-05-15T14:25:42.241Z,101142.41
2023-05-15T14:28:10.150Z,101137.78
2023-05-15T14:30:38.025Z,101136.81
2023-05-15T14:33:05.957Z,101146.25
2023-05-15T14:35:34.090Z,101144.34
2023-05-15T14:38:03.427Z,101134.09
2023-05-15T14:40:31.279Z,101142.31
2023-05-15T14:42:59.224Z,101136.41
2023-05-15T14:45:27.545Z,101132.78
2023-05-15T14:47:55.498Z,101134.72
2023-05-15T14:50:23.709Z,101124.34
2023-05-15T14:52:51.698Z,101124.09
2023-05-15T14:55:22.112Z,101123.72
2023-05-15T14:57:50.848Z,101127.91
2023-05-15T15:00:19.461Z,101098.63
2023-05-15T15:02:49.841Z,101122.69
2023-05-15T15:05:18.699Z,101101.97
2023-05-15T15:08:00.224Z,101104.47
2023-05-15T15:10:30.163Z,101123.28
2023-05-15T15:12:58.386Z,101111.28
2023-05-15T15:15:26.835Z,101100.56
2023-05-15T15:17:56.211Z,101103.50
2023-05-15T15:20:25.402Z,101104.66
2023-05-15T15:22:53.993Z,101111.19
2023-05-15T15:25:22.663Z,101055.22
2023-05-15T15:27:52.416Z,101101.84
2023-05-15T15:30:20.814Z,101095.59
2023-05-15T15:32:48.814Z,101093.13
2023-05-15T15:35:16.714Z,101097.25
2023-05-15T15:37:44.590Z,101088.56
2023-05-15T15:40:13.034Z,101073.28
2023-05-15T15:42:40.866Z,101084.41
2023-05-15T15:45:10.593Z,101093.25
2023-05-15T15:47:38.601Z,101090.63
2023-05-15T15:50:07.245Z,101080.66
2023-05-15T15:52:35.160Z,101070.00
2023-05-15T15:55:03.944Z,101077.50
2023-05-15T15:57:31.919Z,101085.56
2023-05-15T15:59:59.834Z,101076.03
2023-05-15T16:02:29.453Z,101070.41
2023-05-15T16:04:57.340Z,101067.34
2023-05-15T16:07:25.179Z,101061.00
2023-05-15T16:10:04.194Z,101075.56
2023-05-15T16:12:40.015Z,101061.09
2023-05-15T16:17:42.812Z,101067.78
2023-05-15T16:20:11.331Z,101061.13
2023-05-15T16:22:41.713Z,101036.50
2023-05-15T16:25:10.211Z,101064.63
2023-05-15T16:27:38.309Z,101060.53
2023-05-15T16:30:07.092Z,101051.88
2023-05-15T16:32:35.140Z,101054.91
2023-05-15T16:35:04.987Z,101005.69
2023-05-15T16:37:32.820Z,101044.22
2023-05-15T16:40:00.857Z,101045.69
2023-05-15T16:42:28.815Z,101046.63
2023-05-15T16:44:56.652Z,101035.00
2023-05-15T16:47:24.553Z,101040.97
2023-05-15T16:49:52.494Z,101029.94
2023-05-15T16:52:22.298Z,100904.88
2023-05-15T16:54:50.128Z,101048.84
2023-05-15T16:57:17.962Z,101032.78
2023-05-15T16:59:46.093Z,101027.06
2023-05-15T17:02:14.122Z,101040.69
2023-05-15T17:04:42.047Z,101041.22
2023-05-15T17:07:10.361Z,100902.25
2023-05-15T17:09:40.692Z,101040.22
2023-05-15T17:12:08.848Z,101037.03
2023-05-15T17:14:36.788Z,101026.59
2023-05-15T17:17:04.851Z,101032.09
2023-05-15T17:19:34.466Z,101036.81
2023-05-15T17:22:02.518Z,100883.50
2023-05-15T17:24:42.339Z,101024.03
2023-05-15T17:27:20.581Z,101035.63
2023-05-15T17:29:49.759Z,101032.09
2023-05-15T17:32:18.459Z,101027.69
2023-05-15T17:34:46.462Z,101026.88
2023-05-15T17:37:15.001Z,101037.53
2023-05-15T17:39:43.231Z,101031.41
2023-05-15T17:42:11.241Z,101028.81
2023-05-15T17:44:40.983Z,101027.03
2023-05-15T17:47:10.240Z,101029.72
2023-05-15T17:49:38.704Z,100978.50
2023-05-15T17:52:07.216Z,101025.22
2023-05-15T17:54:35.096Z,100989.06
2023-05-15T17:57:03.147Z,101029.66
2023-05-15T17:59:31.217Z,101013.75
2023-05-15T18:02:00.682Z,101014.63
2023-05-15T18:04:30.587Z,101025.22
2023-05-15T18:06:58.424Z,101020.84
2023-05-15T18:09:26.656Z,101028.81
2023-05-15T18:11:54.567Z,101027.06
2023-05-15T18:14:22.394Z,101027.16
2023-05-15T18:16:50.232Z,100961.84
2023-05-15T18:19:19.691Z,101013.16
2023-05-15T18:21:47.547Z,101035.28
2023-05-15T18:24:15.414Z,101033.56
2023-05-15T18:26:43.622Z,101028.28
2023-05-15T18:29:11.595Z,101025.63
2023-05-15T18:31:39.665Z,101027.44
2023-05-15T18:34:07.691Z,101032.81
2023-05-15T18:36:37.005Z,101022.22
2023-05-15T18:39:07.312Z,101026.69
2023-05-15T18:41:35.208Z,101023.19
2023-05-15T18:44:03.100Z,101010.84
2023-05-15T18:46:34.186Z,101017.94
2023-05-15T18:49:04.941Z,101009.97
2023-05-15T18:51:32.754Z,101009.97
2023-05-15T18:54:02.020Z,101004.69
2023-05-15T18:56:31.178Z,101002.03
2023-05-15T18:58:59.009Z,100999.41
2023-05-15T19:01:26.974Z,100986.16
2023-05-15T19:03:54.888Z,100990.56
2023-05-15T19:06:22.772Z,100995.88
2023-05-15T19:08:50.667Z,100995.88
2023-05-15T19:11:19.933Z,100995.88
2023-05-15T19:13:47.810Z,101004.66
2023-05-15T19:16:15.728Z,100993.16
2023-05-15T19:18:44.037Z,101001.09
2023-05-15T19:21:12.045Z,100993.09
2023-05-15T19:23:39.881Z,101023.09
2023-05-15T19:26:07.782Z,101030.09
2023-05-15T19:28:37.651Z,101013.22
2023-05-15T19:31:08.202Z,100869.69
2023-05-15T19:33:39.838Z,101026.34
2023-05-15T19:36:07.930Z,101021.81
2023-05-15T19:38:35.769Z,101020.00
2023-05-15T19:41:04.205Z,101025.28
2023-05-15T19:43:35.834Z,101024.41
2023-05-15T19:46:05.526Z,101023.50
2023-05-15T19:48:33.749Z,101016.44
2023-05-15T19:51:01.580Z,101022.59
2023-05-15T19:53:29.553Z,101016.41
2023-05-15T19:55:58.541Z,101000.47
2023-05-15T19:58:26.404Z,101013.75
2023-05-15T20:00:54.996Z,101011.97
2023-05-15T20:03:25.909Z,100981.84
2023-05-15T20:05:54.022Z,101005.72
2023-05-15T20:08:22.113Z,101001.28
2023-05-15T20:10:52.683Z,101002.09
2023-05-15T20:13:20.929Z,100988.78
2023-05-15T20:15:54.843Z,100973.69
2023-05-15T20:18:24.386Z,100991.38
2023-05-15T20:20:53.476Z,100996.63
2023-05-15T20:23:22.048Z,100966.50
2023-05-15T20:25:51.367Z,100984.16
2023-05-15T20:28:19.555Z,100986.78
2023-05-15T20:30:47.732Z,100981.44
2023-05-15T20:33:15.793Z,100984.06
2023-05-15T20:35:45.515Z,100937.13
2023-05-15T20:38:13.884Z,100967.19
2023-05-15T20:40:41.704Z,100978.66
2023-05-15T20:43:09.677Z,100977.72
2023-05-15T20:45:37.545Z,100979.38
2023-05-15T20:48:06.800Z,100974.03
2023-05-15T20:50:34.715Z,100970.44
2023-05-15T20:53:04.189Z,100967.72
2023-05-15T20:55:32.060Z,100963.31
2023-05-15T20:57:59.959Z,100962.41
2023-05-15T21:00:28.343Z,100963.22
2023-05-15T21:02:56.387Z,100960.56
2023-05-15T21:05:24.411Z,100956.09
2023-05-15T21:07:52.274Z,100956.97
2023-05-15T21:10:21.480Z,100955.19
2023-05-15T21:12:49.452Z,100944.50
2023-05-15T21:15:17.543Z,100922.34
2023-05-15T21:17:45.887Z,100944.56
2023-05-15T21:20:14.066Z,100932.13
2023-05-15T21:22:41.958Z,100937.41
2023-05-15T21:25:11.268Z,100923.25
2023-05-15T21:27:42.091Z,100916.13
2023-05-15T21:30:11.113Z,100916.94
2023-05-15T21:32:39.031Z,100834.44
2023-05-15T21:35:07.528Z,100917.69
2023-05-15T21:37:35.393Z,100914.13
2023-05-15T21:40:03.270Z,100910.53
2023-05-15T21:42:32.292Z,100896.28
2023-05-15T21:45:02.120Z,100895.31
2023-05-15T21:47:30.773Z,100908.56
2023-05-15T21:49:58.715Z,100908.50
2023-05-15T21:52:26.538Z,100867.69
2023-05-15T21:54:54.918Z,100880.03
2023-05-15T21:57:23.404Z,100899.53
2023-05-15T21:59:51.299Z,100891.50
2023-05-15T22:02:20.535Z,100898.59
2023-05-15T22:04:48.431Z,100887.06
2023-05-15T22:07:17.587Z,100895.06
2023-05-15T22:09:45.640Z,100878.25
2023-05-15T22:12:26.720Z,100883.63
2023-05-15T22:14:58.936Z,100882.75
2023-05-15T22:17:30.525Z,100880.09
2023-05-15T22:20:07.053Z,100841.97
2023-05-15T22:22:36.424Z,100867.75
2023-05-15T22:25:04.505Z,100722.53
2023-05-15T22:27:32.822Z,100863.41
2023-05-15T22:30:00.882Z,100867.75
2023-05-15T22:32:30.119Z,100858.94
2023-05-15T22:34:58.088Z,100859.88
2023-05-15T22:37:28.225Z,100854.59
2023-05-15T22:39:56.050Z,100849.31
2023-05-15T22:42:24.067Z,100828.09
2023-05-15T22:44:54.044Z,100840.50
2023-05-15T22:47:22.050Z,100825.44
2023-05-15T22:49:51.380Z,100831.63
2023-05-15T22:52:19.715Z,100837.78
2023-05-15T22:55:21.433Z,100829.81
2023-05-15T22:57:49.558Z,100824.53
2023-05-15T23:00:19.167Z,100823.53
2023-05-15T23:02:47.190Z,100815.59
2023-05-15T23:05:16.470Z,100816.41
2023-05-15T23:08:43.695Z,100803.19
2023-05-15T23:11:11.713Z,100804.03
2023-05-15T23:13:39.534Z,100793.44
2023-05-15T23:16:07.798Z,100791.72
2023-05-15T23:18:35.771Z,100786.47
2023-05-15T23:21:05.097Z,100788.28
2023-05-15T23:23:32.947Z,100779.47
2023-05-15T23:26:01.468Z,100772.38
2023-05-15T23:28:29.503Z,100781.16
2023-05-15T23:30:57.485Z,100767.94
2023-05-15T23:33:25.608Z,100769.78
2023-05-15T23:35:53.451Z,100762.72
2023-05-15T23:38:23.641Z,100750.25
2023-05-15T23:40:52.656Z,100767.03
2023-05-15T23:43:20.699Z,100770.50
2023-05-15T23:45:48.547Z,100755.47
2023-05-15T23:48:16.673Z,100740.50
2023-05-15T23:50:44.848Z,100742.19
2023-05-15T23:53:12.712Z,100728.84
2023-05-15T23:55:42.001Z,100735.88
2023-05-15T23:58:09.886Z,100716.34
